Terminal Aerodrome Forecast
Issued by NWS

Home | Current Version | Previous Version | Graphics & Text | Print | Product List | Glossary On
Versions: 1 2 3 4 5 6 7 8 9 10 11 12 13 14 15 16 17 18 19 20 21 22 23 24 25 26 27 28 29
583
FTUS43 KLOT 230523 CCA
TAFORD
TAF COR
KORD 230523Z 2306/2412 13011KT 3SM BR OVC008
     FM230800 14009KT 2SM -RA BR BKN004 OVC006
      TEMPO 2309/2313 1SM -RA BR OVC003
     FM231300 21007KT 5SM BR OVC006
     FM231600 26011KT P6SM OVC012
     FM231900 27012G18KT P6SM SCT015 OVC025
     FM240000 28007KT P6SM SCT020 BKN150
     FM240500 34005KT P6SM BKN100
     FM240800 03008KT P6SM BKN060=

USA.gov is the U.S. government's official web portal to all federal, state and local government web resources and services.